sensor_id;sensor_type;location;lat;lon;timestamp;P1;durP1;ratioP1;P2;durP2;ratioP2
18857;SDS011;9558;50.178;8.370;2024-01-15T00:02:24;9.18;;;2.30;;
18857;SDS011;9558;50.178;8.370;2024-01-15T00:04:51;13.05;;;3.50;;
18857;SDS011;9558;50.178;8.370;2024-01-15T00:07:17;3.58;;;1.58;;
18857;SDS011;9558;50.178;8.370;2024-01-15T00:09:44;6.38;;;2.35;;
18857;SDS011;9558;50.178;8.370;2024-01-15T00:12:10;9.27;;;3.00;;
18857;SDS011;9558;50.178;8.370;2024-01-15T00:14:38;7.70;;;3.78;;
18857;SDS011;9558;50.178;8.370;2024-01-15T00:17:04;5.20;;;3.38;;
18857;SDS011;9558;50.178;8.370;2024-01-15T00:19:31;8.48;;;3.70;;
18857;SDS011;9558;50.178;8.370;2024-01-15T00:21:57;9.05;;;3.80;;
18857;SDS011;9558;50.178;8.370;2024-01-15T00:24:24;5.10;;;3.45;;
18857;SDS011;9558;50.178;8.370;2024-01-15T00:26:51;1.63;;;0.95;;
18857;SDS011;9558;50.178;8.370;2024-01-15T00:29:18;6.53;;;2.47;;
18857;SDS011;9558;50.178;8.370;2024-01-15T00:31:47;8.00;;;2.63;;
18857;SDS011;9558;50.178;8.370;2024-01-15T00:34:13;5.13;;;3.00;;
18857;SDS011;9558;50.178;8.370;2024-01-15T00:36:40;11.77;;;3.53;;
18857;SDS011;9558;50.178;8.370;2024-01-15T00:39:06;6.05;;;2.97;;
18857;SDS011;9558;50.178;8.370;2024-01-15T00:41:51;14.27;;;4.93;;
18857;SDS011;9558;50.178;8.370;2024-01-15T00:44:38;5.07;;;2.65;;
18857;SDS011;9558;50.178;8.370;2024-01-15T00:47:26;6.35;;;2.30;;
18857;SDS011;9558;50.178;8.370;2024-01-15T00:50:13;11.05;;;4.97;;
18857;SDS011;9558;50.178;8.370;2024-01-15T00:53:00;15.13;;;4.43;;
18857;SDS011;9558;50.178;8.370;2024-01-15T00:55:46;12.50;;;4.57;;
18857;SDS011;9558;50.178;8.370;2024-01-15T00:58:34;3.15;;;2.33;;
18857;SDS011;9558;50.178;8.370;2024-01-15T01:01:20;8.90;;;3.13;;
18857;SDS011;9558;50.178;8.370;2024-01-15T01:04:08;4.43;;;2.72;;
18857;SDS011;9558;50.178;8.370;2024-01-15T01:06:55;7.30;;;2.50;;
18857;SDS011;9558;50.178;8.370;2024-01-15T01:09:42;12.70;;;3.60;;
18857;SDS011;9558;50.178;8.370;2024-01-15T01:12:29;11.73;;;3.53;;
18857;SDS011;9558;50.178;8.370;2024-01-15T01:15:16;7.00;;;3.20;;
18857;SDS011;9558;50.178;8.370;2024-01-15T01:18:03;4.47;;;2.08;;
18857;SDS011;9558;50.178;8.370;2024-01-15T01:20:51;12.30;;;4.28;;
18857;SDS011;9558;50.178;8.370;2024-01-15T01:23:38;8.95;;;4.43;;
18857;SDS011;9558;50.178;8.370;2024-01-15T01:26:25;9.25;;;3.00;;
18857;SDS011;9558;50.178;8.370;2024-01-15T01:29:12;14.30;;;3.55;;
18857;SDS011;9558;50.178;8.370;2024-01-15T01:31:59;6.80;;;2.25;;
18857;SDS011;9558;50.178;8.370;2024-01-15T01:34:46;7.50;;;3.65;;
18857;SDS011;9558;50.178;8.370;2024-01-15T01:37:34;10.93;;;3.60;;
18857;SDS011;9558;50.178;8.370;2024-01-15T01:40:21;9.35;;;2.53;;
18857;SDS011;9558;50.178;8.370;2024-01-15T01:43:08;7.82;;;4.40;;
18857;SDS011;9558;50.178;8.370;2024-01-15T01:45:56;5.43;;;3.45;;
18857;SDS011;9558;50.178;8.370;2024-01-15T01:48:43;11.40;;;4.85;;
18857;SDS011;9558;50.178;8.370;2024-01-15T01:51:30;3.35;;;2.63;;
18857;SDS011;9558;50.178;8.370;2024-01-15T01:54:19;15.48;;;3.45;;
18857;SDS011;9558;50.178;8.370;2024-01-15T01:57:07;6.75;;;2.50;;
18857;SDS011;9558;50.178;8.370;2024-01-15T01:59:54;6.80;;;2.42;;
18857;SDS011;9558;50.178;8.370;2024-01-15T02:02:41;5.43;;;3.25;;
18857;SDS011;9558;50.178;8.370;2024-01-15T02:05:28;10.57;;;3.97;;
18857;SDS011;9558;50.178;8.370;2024-01-15T02:08:17;9.50;;;3.65;;
18857;SDS011;9558;50.178;8.370;2024-01-15T02:11:05;7.47;;;2.17;;
18857;SDS011;9558;50.178;8.370;2024-01-15T02:13:52;3.10;;;1.67;;
18857;SDS011;9558;50.178;8.370;2024-01-15T02:16:39;9.43;;;2.47;;
18857;SDS011;9558;50.178;8.370;2024-01-15T02:19:26;7.10;;;2.63;;
18857;SDS011;9558;50.178;8.370;2024-01-15T02:22:12;17.73;;;5.60;;
18857;SDS011;9558;50.178;8.370;2024-01-15T02:25:01;6.38;;;3.28;;
18857;SDS011;9558;50.178;8.370;2024-01-15T02:27:48;8.65;;;4.50;;
18857;SDS011;9558;50.178;8.370;2024-01-15T02:30:35;9.95;;;3.72;;
18857;SDS011;9558;50.178;8.370;2024-01-15T02:33:24;11.65;;;3.88;;
18857;SDS011;9558;50.178;8.370;2024-01-15T02:36:11;15.07;;;4.45;;
18857;SDS011;9558;50.178;8.370;2024-01-15T02:38:58;6.55;;;3.08;;
18857;SDS011;9558;50.178;8.370;2024-01-15T02:41:46;7.45;;;4.13;;
18857;SDS011;9558;50.178;8.370;2024-01-15T02:44:33;11.73;;;4.53;;
18857;SDS011;9558;50.178;8.370;2024-01-15T02:47:20;8.13;;;3.08;;
18857;SDS011;9558;50.178;8.370;2024-01-15T02:50:07;8.73;;;2.95;;
18857;SDS011;9558;50.178;8.370;2024-01-15T02:52:53;8.10;;;2.83;;
18857;SDS011;9558;50.178;8.370;2024-01-15T02:55:40;7.80;;;3.30;;
18857;SDS011;9558;50.178;8.370;2024-01-15T02:58:28;3.42;;;2.45;;
18857;SDS011;9558;50.178;8.370;2024-01-15T03:01:17;9.65;;;4.00;;
18857;SDS011;9558;50.178;8.370;2024-01-15T03:04:05;3.17;;;1.75;;
18857;SDS011;9558;50.178;8.370;2024-01-15T03:06:51;9.77;;;4.97;;
18857;SDS011;9558;50.178;8.370;2024-01-15T03:09:38;7.47;;;3.53;;
18857;SDS011;9558;50.178;8.370;2024-01-15T03:12:25;5.22;;;2.72;;
18857;SDS011;9558;50.178;8.370;2024-01-15T03:15:13;10.30;;;3.17;;
18857;SDS011;9558;50.178;8.370;2024-01-15T03:18:00;5.00;;;1.50;;
18857;SDS011;9558;50.178;8.370;2024-01-15T03:20:47;8.65;;;3.35;;
18857;SDS011;9558;50.178;8.370;2024-01-15T03:23:33;9.73;;;3.22;;
18857;SDS011;9558;50.178;8.370;2024-01-15T03:26:20;8.02;;;3.15;;
18857;SDS011;9558;50.178;8.370;2024-01-15T03:29:07;11.98;;;2.80;;
18857;SDS011;9558;50.178;8.370;2024-01-15T03:31:55;6.93;;;3.75;;
18857;SDS011;9558;50.178;8.370;2024-01-15T03:34:42;13.52;;;4.00;;
18857;SDS011;9558;50.178;8.370;2024-01-15T03:37:29;10.60;;;2.72;;
18857;SDS011;9558;50.178;8.370;2024-01-15T03:40:16;6.65;;;3.03;;
18857;SDS011;9558;50.178;8.370;2024-01-15T03:43:03;6.13;;;2.67;;
18857;SDS011;9558;50.178;8.370;2024-01-15T03:45:50;11.85;;;4.20;;
18857;SDS011;9558;50.178;8.370;2024-01-15T03:48:38;15.52;;;3.78;;
18857;SDS011;9558;50.178;8.370;2024-01-15T03:51:25;13.32;;;2.97;;
18857;SDS011;9558;50.178;8.370;2024-01-15T03:54:11;6.28;;;3.45;;
18857;SDS011;9558;50.178;8.370;2024-01-15T03:56:58;8.32;;;2.05;;
18857;SDS011;9558;50.178;8.370;2024-01-15T03:59:45;6.78;;;3.38;;
18857;SDS011;9558;50.178;8.370;2024-01-15T04:05:20;7.82;;;2.25;;
18857;SDS011;9558;50.178;8.370;2024-01-15T04:08:07;7.75;;;3.15;;
18857;SDS011;9558;50.178;8.370;2024-01-15T04:10:54;9.95;;;4.07;;
18857;SDS011;9558;50.178;8.370;2024-01-15T04:13:41;8.52;;;2.92;;
18857;SDS011;9558;50.178;8.370;2024-01-15T04:16:28;10.68;;;2.47;;
18857;SDS011;9558;50.178;8.370;2024-01-15T04:19:15;7.80;;;4.03;;
18857;SDS011;9558;50.178;8.370;2024-01-15T04:22:03;5.65;;;3.05;;
18857;SDS011;9558;50.178;8.370;2024-01-15T04:24:50;7.25;;;3.53;;
18857;SDS011;9558;50.178;8.370;2024-01-15T04:27:37;5.78;;;2.83;;
18857;SDS011;9558;50.178;8.370;2024-01-15T04:30:24;13.23;;;3.63;;
18857;SDS011;9558;50.178;8.370;2024-01-15T04:33:10;12.45;;;5.22;;
18857;SDS011;9558;50.178;8.370;2024-01-15T04:36:00;6.50;;;3.00;;
18857;SDS011;9558;50.178;8.370;2024-01-15T04:38:49;9.25;;;3.10;;
18857;SDS011;9558;50.178;8.370;2024-01-15T04:41:36;8.73;;;3.13;;
18857;SDS011;9558;50.178;8.370;2024-01-15T04:44:23;7.72;;;3.92;;
18857;SDS011;9558;50.178;8.370;2024-01-15T04:47:09;8.52;;;3.55;;
18857;SDS011;9558;50.178;8.370;2024-01-15T04:49:56;7.80;;;3.95;;
18857;SDS011;9558;50.178;8.370;2024-01-15T04:52:43;11.93;;;3.97;;
18857;SDS011;9558;50.178;8.370;2024-01-15T04:55:31;3.95;;;2.53;;
18857;SDS011;9558;50.178;8.370;2024-01-15T04:58:18;9.88;;;3.08;;
18857;SDS011;9558;50.178;8.370;2024-01-15T05:01:05;5.68;;;2.53;;
18857;SDS011;9558;50.178;8.370;2024-01-15T05:03:51;6.55;;;4.07;;
18857;SDS011;9558;50.178;8.370;2024-01-15T05:06:38;4.57;;;3.10;;
18857;SDS011;9558;50.178;8.370;2024-01-15T05:09:25;8.65;;;4.22;;
18857;SDS011;9558;50.178;8.370;2024-01-15T05:12:13;11.23;;;3.45;;
18857;SDS011;9558;50.178;8.370;2024-01-15T05:15:00;10.27;;;3.60;;
18857;SDS011;9558;50.178;8.370;2024-01-15T05:17:46;5.35;;;2.75;;
18857;SDS011;9558;50.178;8.370;2024-01-15T05:20:33;4.65;;;2.85;;
18857;SDS011;9558;50.178;8.370;2024-01-15T05:23:20;11.40;;;3.10;;
18857;SDS011;9558;50.178;8.370;2024-01-15T05:26:07;9.82;;;3.10;;
18857;SDS011;9558;50.178;8.370;2024-01-15T05:28:56;6.25;;;2.95;;
18857;SDS011;9558;50.178;8.370;2024-01-15T05:31:42;7.72;;;2.65;;
18857;SDS011;9558;50.178;8.370;2024-01-15T05:34:29;10.23;;;3.83;;
18857;SDS011;9558;50.178;8.370;2024-01-15T05:37:16;8.23;;;2.42;;
18857;SDS011;9558;50.178;8.370;2024-01-15T05:40:03;8.10;;;2.80;;
18857;SDS011;9558;50.178;8.370;2024-01-15T05:42:50;7.05;;;2.80;;
18857;SDS011;9558;50.178;8.370;2024-01-15T05:45:42;6.43;;;3.33;;
18857;SDS011;9558;50.178;8.370;2024-01-15T05:48:29;11.18;;;3.83;;
18857;SDS011;9558;50.178;8.370;2024-01-15T05:51:16;10.48;;;3.40;;
18857;SDS011;9558;50.178;8.370;2024-01-15T05:54:03;7.00;;;3.33;;
18857;SDS011;9558;50.178;8.370;2024-01-15T05:56:51;5.57;;;2.92;;
18857;SDS011;9558;50.178;8.370;2024-01-15T05:59:38;5.22;;;3.45;;
18857;SDS011;9558;50.178;8.370;2024-01-15T06:02:26;10.02;;;3.38;;
18857;SDS011;9558;50.178;8.370;2024-01-15T06:05:13;13.00;;;3.67;;
18857;SDS011;9558;50.178;8.370;2024-01-15T06:08:00;6.18;;;2.22;;
18857;SDS011;9558;50.178;8.370;2024-01-15T06:10:47;10.75;;;3.22;;
18857;SDS011;9558;50.178;8.370;2024-01-15T06:13:33;12.13;;;4.25;;
18857;SDS011;9558;50.178;8.370;2024-01-15T06:16:20;8.80;;;2.65;;
18857;SDS011;9558;50.178;8.370;2024-01-15T06:19:09;8.73;;;3.53;;
18857;SDS011;9558;50.178;8.370;2024-01-15T06:21:56;6.25;;;4.28;;
18857;SDS011;9558;50.178;8.370;2024-01-15T06:24:42;11.88;;;4.18;;
18857;SDS011;9558;50.178;8.370;2024-01-15T06:27:29;11.13;;;2.78;;
18857;SDS011;9558;50.178;8.370;2024-01-15T06:30:16;5.93;;;3.15;;
18857;SDS011;9558;50.178;8.370;2024-01-15T06:33:03;21.52;;;4.75;;
18857;SDS011;9558;50.178;8.370;2024-01-15T06:38:38;10.52;;;4.78;;
18857;SDS011;9558;50.178;8.370;2024-01-15T06:41:25;13.27;;;5.85;;
18857;SDS011;9558;50.178;8.370;2024-01-15T06:44:12;13.27;;;4.47;;
18857;SDS011;9558;50.178;8.370;2024-01-15T06:47:00;7.30;;;3.25;;
18857;SDS011;9558;50.178;8.370;2024-01-15T06:49:47;6.55;;;3.58;;
18857;SDS011;9558;50.178;8.370;2024-01-15T06:52:37;10.00;;;3.42;;
18857;SDS011;9558;50.178;8.370;2024-01-15T06:55:24;8.52;;;3.20;;
18857;SDS011;9558;50.178;8.370;2024-01-15T06:58:10;11.80;;;3.47;;
18857;SDS011;9558;50.178;8.370;2024-01-15T07:00:57;12.18;;;3.60;;
18857;SDS011;9558;50.178;8.370;2024-01-15T07:03:44;10.55;;;3.28;;
18857;SDS011;9558;50.178;8.370;2024-01-15T07:06:31;9.60;;;4.15;;
18857;SDS011;9558;50.178;8.370;2024-01-15T07:09:19;11.45;;;5.72;;
18857;SDS011;9558;50.178;8.370;2024-01-15T07:12:06;8.57;;;3.33;;
18857;SDS011;9558;50.178;8.370;2024-01-15T07:14:53;10.52;;;4.65;;
18857;SDS011;9558;50.178;8.370;2024-01-15T07:17:40;11.65;;;5.40;;
18857;SDS011;9558;50.178;8.370;2024-01-15T07:20:27;6.53;;;3.35;;
18857;SDS011;9558;50.178;8.370;2024-01-15T07:23:14;10.95;;;2.75;;
18857;SDS011;9558;50.178;8.370;2024-01-15T07:26:04;7.47;;;3.58;;
18857;SDS011;9558;50.178;8.370;2024-01-15T07:28:51;12.93;;;4.30;;
18857;SDS011;9558;50.178;8.370;2024-01-15T07:31:38;7.15;;;2.58;;
18857;SDS011;9558;50.178;8.370;2024-01-15T07:34:26;9.32;;;3.35;;
18857;SDS011;9558;50.178;8.370;2024-01-15T07:37:13;12.18;;;4.32;;
18857;SDS011;9558;50.178;8.370;2024-01-15T07:40:00;9.77;;;4.60;;
18857;SDS011;9558;50.178;8.370;2024-01-15T07:42:51;14.23;;;5.38;;
18857;SDS011;9558;50.178;8.370;2024-01-15T07:45:38;10.07;;;4.55;;
18857;SDS011;9558;50.178;8.370;2024-01-15T07:48:25;8.15;;;3.10;;
18857;SDS011;9558;50.178;8.370;2024-01-15T07:51:12;10.27;;;3.67;;
18857;SDS011;9558;50.178;8.370;2024-01-15T07:54:01;9.52;;;3.47;;
18857;SDS011;9558;50.178;8.370;2024-01-15T07:56:55;14.68;;;3.80;;
18857;SDS011;9558;50.178;8.370;2024-01-15T07:59:45;8.90;;;3.13;;
18857;SDS011;9558;50.178;8.370;2024-01-15T08:02:32;7.55;;;3.50;;
18857;SDS011;9558;50.178;8.370;2024-01-15T08:05:19;9.68;;;3.50;;
18857;SDS011;9558;50.178;8.370;2024-01-15T08:08:06;5.90;;;3.13;;
18857;SDS011;9558;50.178;8.370;2024-01-15T08:10:53;9.02;;;3.30;;
18857;SDS011;9558;50.178;8.370;2024-01-15T08:13:40;11.75;;;4.68;;
18857;SDS011;9558;50.178;8.370;2024-01-15T08:16:29;13.23;;;4.65;;
18857;SDS011;9558;50.178;8.370;2024-01-15T08:19:16;9.50;;;4.03;;
18857;SDS011;9558;50.178;8.370;2024-01-15T08:22:03;11.05;;;3.90;;
18857;SDS011;9558;50.178;8.370;2024-01-15T08:24:29;18.23;;;6.00;;
18857;SDS011;9558;50.178;8.370;2024-01-15T08:26:56;11.90;;;5.43;;
18857;SDS011;9558;50.178;8.370;2024-01-15T08:29:23;12.02;;;3.75;;
18857;SDS011;9558;50.178;8.370;2024-01-15T08:31:51;9.23;;;3.63;;
18857;SDS011;9558;50.178;8.370;2024-01-15T08:34:18;8.88;;;4.20;;
18857;SDS011;9558;50.178;8.370;2024-01-15T08:36:45;11.75;;;4.68;;
18857;SDS011;9558;50.178;8.370;2024-01-15T08:39:12;16.40;;;4.60;;
18857;SDS011;9558;50.178;8.370;2024-01-15T08:41:41;8.75;;;4.38;;
18857;SDS011;9558;50.178;8.370;2024-01-15T08:44:08;12.30;;;4.22;;
18857;SDS011;9558;50.178;8.370;2024-01-15T08:46:37;12.98;;;4.55;;
18857;SDS011;9558;50.178;8.370;2024-01-15T08:49:06;11.38;;;4.20;;
18857;SDS011;9558;50.178;8.370;2024-01-15T08:51:33;8.95;;;3.95;;
18857;SDS011;9558;50.178;8.370;2024-01-15T08:53:59;10.48;;;5.38;;
18857;SDS011;9558;50.178;8.370;2024-01-15T08:56:26;14.95;;;4.43;;
18857;SDS011;9558;50.178;8.370;2024-01-15T08:58:53;8.90;;;3.65;;
18857;SDS011;9558;50.178;8.370;2024-01-15T09:01:19;14.20;;;4.53;;
18857;SDS011;9558;50.178;8.370;2024-01-15T09:03:46;12.85;;;5.07;;
18857;SDS011;9558;50.178;8.370;2024-01-15T09:06:15;7.95;;;3.70;;
18857;SDS011;9558;50.178;8.370;2024-01-15T09:08:42;12.02;;;4.38;;
18857;SDS011;9558;50.178;8.370;2024-01-15T09:11:08;12.95;;;4.60;;
18857;SDS011;9558;50.178;8.370;2024-01-15T09:13:35;12.30;;;4.22;;
18857;SDS011;9558;50.178;8.370;2024-01-15T09:16:02;7.97;;;3.70;;
18857;SDS011;9558;50.178;8.370;2024-01-15T09:18:29;11.18;;;4.10;;
18857;SDS011;9558;50.178;8.370;2024-01-15T09:20:55;9.55;;;3.90;;
18857;SDS011;9558;50.178;8.370;2024-01-15T09:23:23;9.82;;;4.65;;
18857;SDS011;9558;50.178;8.370;2024-01-15T09:25:52;12.00;;;4.78;;
18857;SDS011;9558;50.178;8.370;2024-01-15T09:28:21;16.77;;;5.43;;
18857;SDS011;9558;50.178;8.370;2024-01-15T09:30:48;10.73;;;4.07;;
18857;SDS011;9558;50.178;8.370;2024-01-15T09:33:15;13.30;;;4.40;;
18857;SDS011;9558;50.178;8.370;2024-01-15T09:35:42;11.48;;;4.55;;
18857;SDS011;9558;50.178;8.370;2024-01-15T09:38:09;9.63;;;4.47;;
18857;SDS011;9558;50.178;8.370;2024-01-15T09:40:37;14.20;;;4.93;;
18857;SDS011;9558;50.178;8.370;2024-01-15T09:43:04;6.85;;;3.15;;
18857;SDS011;9558;50.178;8.370;2024-01-15T09:45:31;10.20;;;3.67;;
18857;SDS011;9558;50.178;8.370;2024-01-15T09:47:58;4.45;;;2.60;;
18857;SDS011;9558;50.178;8.370;2024-01-15T09:50:24;9.02;;;3.08;;
18857;SDS011;9558;50.178;8.370;2024-01-15T09:52:51;13.20;;;3.70;;
18857;SDS011;9558;50.178;8.370;2024-01-15T09:55:18;10.23;;;3.60;;
18857;SDS011;9558;50.178;8.370;2024-01-15T09:57:46;13.32;;;4.57;;
18857;SDS011;9558;50.178;8.370;2024-01-15T10:00:13;10.45;;;3.50;;
18857;SDS011;9558;50.178;8.370;2024-01-15T10:02:43;10.65;;;5.30;;
18857;SDS011;9558;50.178;8.370;2024-01-15T10:05:09;10.75;;;4.70;;
18857;SDS011;9558;50.178;8.370;2024-01-15T10:07:37;8.95;;;3.80;;
18857;SDS011;9558;50.178;8.370;2024-01-15T10:10:05;12.05;;;4.07;;
18857;SDS011;9558;50.178;8.370;2024-01-15T10:12:32;13.25;;;4.00;;
18857;SDS011;9558;50.178;8.370;2024-01-15T10:17:29;8.13;;;3.42;;
18857;SDS011;9558;50.178;8.370;2024-01-15T10:19:56;8.27;;;2.90;;
18857;SDS011;9558;50.178;8.370;2024-01-15T10:22:23;12.27;;;3.10;;
18857;SDS011;9558;50.178;8.370;2024-01-15T10:24:49;7.47;;;3.13;;
18857;SDS011;9558;50.178;8.370;2024-01-15T10:27:16;8.85;;;4.00;;
18857;SDS011;9558;50.178;8.370;2024-01-15T10:29:42;6.90;;;2.67;;
18857;SDS011;9558;50.178;8.370;2024-01-15T10:32:10;8.27;;;3.50;;
18857;SDS011;9558;50.178;8.370;2024-01-15T10:34:38;13.48;;;4.20;;
18857;SDS011;9558;50.178;8.370;2024-01-15T10:37:07;7.72;;;3.30;;
18857;SDS011;9558;50.178;8.370;2024-01-15T10:39:34;9.27;;;3.35;;
18857;SDS011;9558;50.178;8.370;2024-01-15T10:42:01;9.07;;;3.05;;
18857;SDS011;9558;50.178;8.370;2024-01-15T10:44:28;7.75;;;3.17;;
18857;SDS011;9558;50.178;8.370;2024-01-15T10:46:55;11.52;;;3.20;;
18857;SDS011;9558;50.178;8.370;2024-01-15T10:49:24;8.77;;;3.60;;
18857;SDS011;9558;50.178;8.370;2024-01-15T10:51:53;7.95;;;3.50;;
18857;SDS011;9558;50.178;8.370;2024-01-15T10:54:20;6.45;;;2.80;;
18857;SDS011;9558;50.178;8.370;2024-01-15T10:56:49;8.57;;;3.40;;
18857;SDS011;9558;50.178;8.370;2024-01-15T10:59:16;9.65;;;3.83;;
18857;SDS011;9558;50.178;8.370;2024-01-15T11:01:43;10.35;;;3.78;;
18857;SDS011;9558;50.178;8.370;2024-01-15T11:04:11;12.00;;;3.60;;
18857;SDS011;9558;50.178;8.370;2024-01-15T11:06:43;9.48;;;3.05;;
18857;SDS011;9558;50.178;8.370;2024-01-15T11:09:11;7.55;;;2.97;;
18857;SDS011;9558;50.178;8.370;2024-01-15T11:11:40;9.32;;;3.67;;
18857;SDS011;9558;50.178;8.370;2024-01-15T11:16:53;8.15;;;2.75;;
18857;SDS011;9558;50.178;8.370;2024-01-15T11:19:21;8.52;;;3.10;;
18857;SDS011;9558;50.178;8.370;2024-01-15T11:21:49;4.25;;;2.88;;
18857;SDS011;9558;50.178;8.370;2024-01-15T11:24:33;8.25;;;3.47;;
18857;SDS011;9558;50.178;8.370;2024-01-15T11:27:01;7.13;;;2.85;;
18857;SDS011;9558;50.178;8.370;2024-01-15T11:29:29;7.07;;;3.15;;
18857;SDS011;9558;50.178;8.370;2024-01-15T11:31:57;4.88;;;2.72;;
18857;SDS011;9558;50.178;8.370;2024-01-15T11:37:25;4.65;;;2.10;;
18857;SDS011;9558;50.178;8.370;2024-01-15T11:39:53;5.03;;;3.05;;
18857;SDS011;9558;50.178;8.370;2024-01-15T11:42:20;9.18;;;2.30;;
18857;SDS011;9558;50.178;8.370;2024-01-15T11:44:49;5.57;;;2.35;;
18857;SDS011;9558;50.178;8.370;2024-01-15T11:47:16;6.50;;;2.45;;
18857;SDS011;9558;50.178;8.370;2024-01-15T11:50:03;3.65;;;1.65;;
18857;SDS011;9558;50.178;8.370;2024-01-15T11:52:36;5.53;;;1.88;;
18857;SDS011;9558;50.178;8.370;2024-01-15T11:55:16;4.70;;;2.58;;
18857;SDS011;9558;50.178;8.370;2024-01-15T11:57:47;8.07;;;2.45;;
18857;SDS011;9558;50.178;8.370;2024-01-15T12:00:16;4.35;;;2.15;;
18857;SDS011;9558;50.178;8.370;2024-01-15T12:02:44;4.18;;;2.28;;
18857;SDS011;9558;50.178;8.370;2024-01-15T12:05:12;4.88;;;1.98;;
18857;SDS011;9558;50.178;8.370;2024-01-15T12:07:46;2.20;;;1.35;;
18857;SDS011;9558;50.178;8.370;2024-01-15T12:10:14;3.25;;;1.90;;
18857;SDS011;9558;50.178;8.370;2024-01-15T12:12:55;4.18;;;1.75;;
18857;SDS011;9558;50.178;8.370;2024-01-15T12:15:24;3.75;;;2.40;;
18857;SDS011;9558;50.178;8.370;2024-01-15T12:17:52;4.53;;;2.25;;
18857;SDS011;9558;50.178;8.370;2024-01-15T12:20:18;3.25;;;1.40;;
18857;SDS011;9558;50.178;8.370;2024-01-15T12:22:47;5.47;;;1.83;;
18857;SDS011;9558;50.178;8.370;2024-01-15T12:25:13;2.58;;;1.23;;
18857;SDS011;9558;50.178;8.370;2024-01-15T12:27:40;5.05;;;2.05;;
18857;SDS011;9558;50.178;8.370;2024-01-15T12:30:09;4.53;;;1.38;;
18857;SDS011;9558;50.178;8.370;2024-01-15T12:32:37;6.10;;;2.35;;
18857;SDS011;9558;50.178;8.370;2024-01-15T12:35:04;5.60;;;2.08;;
18857;SDS011;9558;50.178;8.370;2024-01-15T12:37:31;5.10;;;2.13;;
18857;SDS011;9558;50.178;8.370;2024-01-15T12:39:59;9.13;;;2.78;;
18857;SDS011;9558;50.178;8.370;2024-01-15T12:42:28;4.03;;;1.70;;
18857;SDS011;9558;50.178;8.370;2024-01-15T12:44:55;5.55;;;2.80;;
18857;SDS011;9558;50.178;8.370;2024-01-15T12:49:50;3.42;;;1.80;;
18857;SDS011;9558;50.178;8.370;2024-01-15T12:52:19;5.10;;;2.85;;
18857;SDS011;9558;50.178;8.370;2024-01-15T12:54:46;5.00;;;2.75;;
18857;SDS011;9558;50.178;8.370;2024-01-15T12:57:14;7.50;;;2.42;;
18857;SDS011;9558;50.178;8.370;2024-01-15T12:59:41;4.85;;;1.75;;
18857;SDS011;9558;50.178;8.370;2024-01-15T13:02:08;5.78;;;2.70;;
18857;SDS011;9558;50.178;8.370;2024-01-15T13:04:35;5.93;;;2.20;;
18857;SDS011;9558;50.178;8.370;2024-01-15T13:07:02;3.40;;;2.35;;
18857;SDS011;9558;50.178;8.370;2024-01-15T13:09:28;4.95;;;2.70;;
18857;SDS011;9558;50.178;8.370;2024-01-15T13:11:55;3.00;;;1.48;;
18857;SDS011;9558;50.178;8.370;2024-01-15T13:14:23;3.13;;;2.13;;
18857;SDS011;9558;50.178;8.370;2024-01-15T13:16:51;8.98;;;3.17;;
18857;SDS011;9558;50.178;8.370;2024-01-15T13:19:18;8.65;;;2.45;;
18857;SDS011;9558;50.178;8.370;2024-01-15T13:21:47;3.83;;;2.13;;
18857;SDS011;9558;50.178;8.370;2024-01-15T13:24:13;10.35;;;3.65;;
18857;SDS011;9558;50.178;8.370;2024-01-15T13:26:40;5.63;;;2.50;;
18857;SDS011;9558;50.178;8.370;2024-01-15T13:29:06;5.68;;;2.75;;
18857;SDS011;9558;50.178;8.370;2024-01-15T13:31:34;4.80;;;2.10;;
18857;SDS011;9558;50.178;8.370;2024-01-15T13:34:01;5.13;;;2.10;;
18857;SDS011;9558;50.178;8.370;2024-01-15T13:36:28;5.18;;;2.22;;
18857;SDS011;9558;50.178;8.370;2024-01-15T13:38:55;6.57;;;2.45;;
18857;SDS011;9558;50.178;8.370;2024-01-15T13:41:21;5.50;;;2.17;;
18857;SDS011;9558;50.178;8.370;2024-01-15T13:43:52;4.20;;;2.38;;
18857;SDS011;9558;50.178;8.370;2024-01-15T13:48:48;5.32;;;2.45;;
18857;SDS011;9558;50.178;8.370;2024-01-15T13:51:14;5.15;;;1.13;;
18857;SDS011;9558;50.178;8.370;2024-01-15T13:53:41;2.83;;;1.65;;
18857;SDS011;9558;50.178;8.370;2024-01-15T13:56:08;9.85;;;3.80;;
18857;SDS011;9558;50.178;8.370;2024-01-15T13:58:35;4.40;;;2.33;;
18857;SDS011;9558;50.178;8.370;2024-01-15T14:01:02;4.20;;;1.92;;
18857;SDS011;9558;50.178;8.370;2024-01-15T14:03:30;5.30;;;1.88;;
18857;SDS011;9558;50.178;8.370;2024-01-15T14:06:00;5.85;;;2.00;;
18857;SDS011;9558;50.178;8.370;2024-01-15T14:08:28;1.88;;;1.35;;
18857;SDS011;9558;50.178;8.370;2024-01-15T14:10:54;2.67;;;1.40;;
18857;SDS011;9558;50.178;8.370;2024-01-15T14:13:22;3.38;;;2.40;;
18857;SDS011;9558;50.178;8.370;2024-01-15T14:15:48;2.65;;;1.50;;
18857;SDS011;9558;50.178;8.370;2024-01-15T14:18:15;5.25;;;2.55;;
18857;SDS011;9558;50.178;8.370;2024-01-15T14:20:42;4.28;;;1.60;;
18857;SDS011;9558;50.178;8.370;2024-01-15T14:23:11;5.63;;;1.85;;
18857;SDS011;9558;50.178;8.370;2024-01-15T14:25:38;8.90;;;2.17;;
18857;SDS011;9558;50.178;8.370;2024-01-15T14:28:05;3.42;;;1.67;;
18857;SDS011;9558;50.178;8.370;2024-01-15T14:30:32;2.40;;;1.38;;
18857;SDS011;9558;50.178;8.370;2024-01-15T14:32:58;3.65;;;1.75;;
18857;SDS011;9558;50.178;8.370;2024-01-15T14:35:25;3.17;;;1.23;;
18857;SDS011;9558;50.178;8.370;2024-01-15T14:37:52;3.28;;;1.63;;
18857;SDS011;9558;50.178;8.370;2024-01-15T14:40:20;5.38;;;2.42;;
18857;SDS011;9558;50.178;8.370;2024-01-15T14:42:46;5.43;;;1.92;;
18857;SDS011;9558;50.178;8.370;2024-01-15T14:45:13;3.28;;;1.67;;
18857;SDS011;9558;50.178;8.370;2024-01-15T14:47:39;3.00;;;1.75;;
18857;SDS011;9558;50.178;8.370;2024-01-15T14:50:07;5.20;;;2.53;;
18857;SDS011;9558;50.178;8.370;2024-01-15T14:52:36;12.80;;;2.80;;
18857;SDS011;9558;50.178;8.370;2024-01-15T14:55:02;7.43;;;1.85;;
18857;SDS011;9558;50.178;8.370;2024-01-15T14:57:31;4.15;;;1.40;;
18857;SDS011;9558;50.178;8.370;2024-01-15T14:59:58;4.13;;;2.00;;
18857;SDS011;9558;50.178;8.370;2024-01-15T15:02:24;3.85;;;1.80;;
18857;SDS011;9558;50.178;8.370;2024-01-15T15:04:53;6.85;;;2.28;;
18857;SDS011;9558;50.178;8.370;2024-01-15T15:07:20;4.45;;;1.98;;
18857;SDS011;9558;50.178;8.370;2024-01-15T15:09:47;2.38;;;1.27;;
18857;SDS011;9558;50.178;8.370;2024-01-15T15:12:16;6.50;;;2.13;;
18857;SDS011;9558;50.178;8.370;2024-01-15T15:14:44;7.78;;;2.78;;
18857;SDS011;9558;50.178;8.370;2024-01-15T15:17:10;7.82;;;3.13;;
18857;SDS011;9558;50.178;8.370;2024-01-15T15:19:37;5.38;;;2.35;;
18857;SDS011;9558;50.178;8.370;2024-01-15T15:22:04;3.38;;;1.70;;
18857;SDS011;9558;50.178;8.370;2024-01-15T15:24:32;9.30;;;1.83;;
18857;SDS011;9558;50.178;8.370;2024-01-15T15:26:59;2.72;;;1.52;;
18857;SDS011;9558;50.178;8.370;2024-01-15T15:29:25;3.75;;;1.20;;
18857;SDS011;9558;50.178;8.370;2024-01-15T15:34:21;3.10;;;2.10;;
18857;SDS011;9558;50.178;8.370;2024-01-15T15:36:48;2.47;;;1.77;;
18857;SDS011;9558;50.178;8.370;2024-01-15T15:39:14;3.13;;;1.30;;
18857;SDS011;9558;50.178;8.370;2024-01-15T15:41:43;2.42;;;1.73;;
18857;SDS011;9558;50.178;8.370;2024-01-15T15:44:10;1.95;;;1.25;;
18857;SDS011;9558;50.178;8.370;2024-01-15T15:46:38;5.93;;;1.48;;
18857;SDS011;9558;50.178;8.370;2024-01-15T15:49:06;3.03;;;1.40;;
18857;SDS011;9558;50.178;8.370;2024-01-15T15:51:32;4.88;;;1.50;;
18857;SDS011;9558;50.178;8.370;2024-01-15T15:54:00;1.30;;;1.05;;
18857;SDS011;9558;50.178;8.370;2024-01-15T15:56:27;3.10;;;1.20;;
18857;SDS011;9558;50.178;8.370;2024-01-15T15:58:54;7.30;;;1.20;;
18857;SDS011;9558;50.178;8.370;2024-01-15T16:01:20;7.05;;;1.77;;
18857;SDS011;9558;50.178;8.370;2024-01-15T16:03:47;6.00;;;0.98;;
18857;SDS011;9558;50.178;8.370;2024-01-15T16:06:15;3.17;;;1.77;;
18857;SDS011;9558;50.178;8.370;2024-01-15T16:11:08;2.45;;;1.00;;
18857;SDS011;9558;50.178;8.370;2024-01-15T16:13:35;2.65;;;1.02;;
18857;SDS011;9558;50.178;8.370;2024-01-15T16:16:02;3.45;;;1.02;;
18857;SDS011;9558;50.178;8.370;2024-01-15T16:18:29;2.15;;;0.77;;